sensor_id;sensor_type;location;lat;lon;timestamp;pressure;altitude;pressure_sealevel;temperature
41940;BMP180;23057;48.554;14.454;2023-04-08T00:01:29;93639.00;;;11.70
41940;BMP180;23057;48.554;14.454;2023-04-08T00:03:59;93637.00;;;11.70
41940;BMP180;23057;48.554;14.454;2023-04-08T00:06:30;93630.00;;;11.70
41940;BMP180;23057;48.554;14.454;2023-04-08T00:09:01;93631.00;;;11.70
41940;BMP180;23057;48.554;14.454;2023-04-08T00:11:32;93625.00;;;11.70
41940;BMP180;23057;48.554;14.454;2023-04-08T00:14:03;93623.00;;;11.70
41940;BMP180;23057;48.554;14.454;2023-04-08T00:16:34;93622.00;;;11.70
41940;BMP180;23057;48.554;14.454;2023-04-08T00:19:05;93618.00;;;11.80
41940;BMP180;23057;48.554;14.454;2023-04-08T00:21:36;93616.00;;;11.90
41940;BMP180;23057;48.554;14.454;2023-04-08T00:24:06;93620.00;;;11.90
41940;BMP180;23057;48.554;14.454;2023-04-08T00:26:37;93617.00;;;11.90
41940;BMP180;23057;48.554;14.454;2023-04-08T00:29:08;93620.00;;;11.90
41940;BMP180;23057;48.554;14.454;2023-04-08T00:31:39;93617.00;;;11.90
41940;BMP180;23057;48.554;14.454;2023-04-08T00:34:09;93619.00;;;11.90
41940;BMP180;23057;48.554;14.454;2023-04-08T00:36:40;93617.00;;;11.90
41940;BMP180;23057;48.554;14.454;2023-04-08T00:39:12;93620.00;;;11.90
41940;BMP180;23057;48.554;14.454;2023-04-08T00:41:44;93627.00;;;11.90
41940;BMP180;23057;48.554;14.454;2023-04-08T00:44:15;93620.00;;;11.90
41940;BMP180;23057;48.554;14.454;2023-04-08T00:49:26;93620.00;;;12.00
41940;BMP180;23057;48.554;14.454;2023-04-08T00:51:58;93622.00;;;12.00
41940;BMP180;23057;48.554;14.454;2023-04-08T00:54:30;93627.00;;;11.90
41940;BMP180;23057;48.554;14.454;2023-04-08T00:57:01;93621.00;;;11.80
41940;BMP180;23057;48.554;14.454;2023-04-08T00:59:33;93624.00;;;11.70
41940;BMP180;23057;48.554;14.454;2023-04-08T01:02:30;93624.00;;;11.70
41940;BMP180;23057;48.554;14.454;2023-04-08T01:08:12;93628.00;;;11.60
41940;BMP180;23057;48.554;14.454;2023-04-08T01:10:49;93629.00;;;11.50
41940;BMP180;23057;48.554;14.454;2023-04-08T01:13:25;93620.00;;;11.40
41940;BMP180;23057;48.554;14.454;2023-04-08T01:15:59;93629.00;;;11.30
41940;BMP180;23057;48.554;14.454;2023-04-08T01:18:32;93624.00;;;11.30
41940;BMP180;23057;48.554;14.454;2023-04-08T01:21:06;93629.00;;;11.30
41940;BMP180;23057;48.554;14.454;2023-04-08T01:26:39;93626.00;;;11.10
41940;BMP180;23057;48.554;14.454;2023-04-08T01:29:11;93628.00;;;11.10
41940;BMP180;23057;48.554;14.454;2023-04-08T01:31:45;93623.00;;;11.00
41940;BMP180;23057;48.554;14.454;2023-04-08T01:34:18;93629.00;;;11.00
41940;BMP180;23057;48.554;14.454;2023-04-08T01:36:51;93626.00;;;10.90
41940;BMP180;23057;48.554;14.454;2023-04-08T01:39:24;93628.00;;;10.80
41940;BMP180;23057;48.554;14.454;2023-04-08T01:41:56;93621.00;;;10.70
41940;BMP180;23057;48.554;14.454;2023-04-08T01:44:29;93624.00;;;10.70
41940;BMP180;23057;48.554;14.454;2023-04-08T01:47:02;93621.00;;;10.60
41940;BMP180;23057;48.554;14.454;2023-04-08T01:49:34;93625.00;;;10.60
41940;BMP180;23057;48.554;14.454;2023-04-08T01:52:06;93623.00;;;10.50
41940;BMP180;23057;48.554;14.454;2023-04-08T01:54:38;93622.00;;;10.40
41940;BMP180;23057;48.554;14.454;2023-04-08T01:57:11;93618.00;;;10.30
41940;BMP180;23057;48.554;14.454;2023-04-08T01:59:47;93628.00;;;10.30
41940;BMP180;23057;48.554;14.454;2023-04-08T02:02:23;93610.00;;;10.20
41940;BMP180;23057;48.554;14.454;2023-04-08T02:04:57;93617.00;;;10.20
41940;BMP180;23057;48.554;14.454;2023-04-08T02:07:28;93618.00;;;10.10
41940;BMP180;23057;48.554;14.454;2023-04-08T02:09:59;93624.00;;;10.10
41940;BMP180;23057;48.554;14.454;2023-04-08T02:12:30;93625.00;;;10.00
41940;BMP180;23057;48.554;14.454;2023-04-08T02:15:03;93619.00;;;10.00
41940;BMP180;23057;48.554;14.454;2023-04-08T02:17:49;93614.00;;;10.00
41940;BMP180;23057;48.554;14.454;2023-04-08T02:20:36;93618.00;;;10.00
41940;BMP180;23057;48.554;14.454;2023-04-08T02:23:19;93618.00;;;10.00
41940;BMP180;23057;48.554;14.454;2023-04-08T02:25:53;93623.00;;;10.00
41940;BMP180;23057;48.554;14.454;2023-04-08T02:28:27;93619.00;;;10.00
41940;BMP180;23057;48.554;14.454;2023-04-08T02:31:01;93628.00;;;10.00
41940;BMP180;23057;48.554;14.454;2023-04-08T02:33:33;93614.00;;;10.00
41940;BMP180;23057;48.554;14.454;2023-04-08T02:36:07;93625.00;;;9.90
41940;BMP180;23057;48.554;14.454;2023-04-08T02:38:39;93617.00;;;9.90
41940;BMP180;23057;48.554;14.454;2023-04-08T02:41:10;93629.00;;;9.90
41940;BMP180;23057;48.554;14.454;2023-04-08T02:43:41;93626.00;;;9.80
41940;BMP180;23057;48.554;14.454;2023-04-08T02:46:12;93614.00;;;9.80
41940;BMP180;23057;48.554;14.454;2023-04-08T02:48:43;93627.00;;;9.80
41940;BMP180;23057;48.554;14.454;2023-04-08T02:51:13;93627.00;;;9.80
41940;BMP180;23057;48.554;14.454;2023-04-08T02:53:44;93621.00;;;9.80
41940;BMP180;23057;48.554;14.454;2023-04-08T02:56:15;93626.00;;;9.80
41940;BMP180;23057;48.554;14.454;2023-04-08T02:58:46;93627.00;;;9.80
41940;BMP180;23057;48.554;14.454;2023-04-08T03:01:17;93626.00;;;9.80
41940;BMP180;23057;48.554;14.454;2023-04-08T03:03:47;93634.00;;;9.80
41940;BMP180;23057;48.554;14.454;2023-04-08T03:06:18;93635.00;;;9.80
41940;BMP180;23057;48.554;14.454;2023-04-08T03:08:49;93634.00;;;9.80
41940;BMP180;23057;48.554;14.454;2023-04-08T03:11:19;93633.00;;;9.80
41940;BMP180;23057;48.554;14.454;2023-04-08T03:13:50;93630.00;;;9.70
41940;BMP180;23057;48.554;14.454;2023-04-08T03:16:21;93637.00;;;9.70
41940;BMP180;23057;48.554;14.454;2023-04-08T03:18:52;93633.00;;;9.60
41940;BMP180;23057;48.554;14.454;2023-04-08T03:21:23;93628.00;;;9.60
41940;BMP180;23057;48.554;14.454;2023-04-08T03:23:54;93630.00;;;9.60
41940;BMP180;23057;48.554;14.454;2023-04-08T03:26:25;93631.00;;;9.60
41940;BMP180;23057;48.554;14.454;2023-04-08T03:28:56;93631.00;;;9.60
41940;BMP180;23057;48.554;14.454;2023-04-08T03:31:27;93638.00;;;9.60
41940;BMP180;23057;48.554;14.454;2023-04-08T03:33:58;93628.00;;;9.50
41940;BMP180;23057;48.554;14.454;2023-04-08T03:36:28;93638.00;;;9.50
41940;BMP180;23057;48.554;14.454;2023-04-08T03:39:00;93640.00;;;9.50
41940;BMP180;23057;48.554;14.454;2023-04-08T03:41:33;93641.00;;;9.50
41940;BMP180;23057;48.554;14.454;2023-04-08T03:44:03;93636.00;;;9.50
41940;BMP180;23057;48.554;14.454;2023-04-08T03:46:34;93638.00;;;9.40
41940;BMP180;23057;48.554;14.454;2023-04-08T03:49:05;93636.00;;;9.40
41940;BMP180;23057;48.554;14.454;2023-04-08T03:51:36;93643.00;;;9.40
41940;BMP180;23057;48.554;14.454;2023-04-08T03:54:07;93632.00;;;9.40
41940;BMP180;23057;48.554;14.454;2023-04-08T03:56:38;93643.00;;;9.40
41940;BMP180;23057;48.554;14.454;2023-04-08T03:59:08;93646.00;;;9.40
41940;BMP180;23057;48.554;14.454;2023-04-08T04:01:39;93647.00;;;9.40
41940;BMP180;23057;48.554;14.454;2023-04-08T04:04:10;93645.00;;;9.40
41940;BMP180;23057;48.554;14.454;2023-04-08T04:06:41;93646.00;;;9.40
41940;BMP180;23057;48.554;14.454;2023-04-08T04:09:11;93641.00;;;9.40
41940;BMP180;23057;48.554;14.454;2023-04-08T04:11:42;93647.00;;;9.40
41940;BMP180;23057;48.554;14.454;2023-04-08T04:14:13;93643.00;;;9.40
41940;BMP180;23057;48.554;14.454;2023-04-08T04:16:43;93663.00;;;9.50
41940;BMP180;23057;48.554;14.454;2023-04-08T04:19:14;93655.00;;;9.40
41940;BMP180;23057;48.554;14.454;2023-04-08T04:21:47;93651.00;;;9.40
41940;BMP180;23057;48.554;14.454;2023-04-08T04:24:17;93656.00;;;9.40
41940;BMP180;23057;48.554;14.454;2023-04-08T04:26:48;93663.00;;;9.40
41940;BMP180;23057;48.554;14.454;2023-04-08T04:29:19;93659.00;;;9.40
41940;BMP180;23057;48.554;14.454;2023-04-08T04:31:49;93659.00;;;9.40
41940;BMP180;23057;48.554;14.454;2023-04-08T04:34:20;93667.00;;;9.40
41940;BMP180;23057;48.554;14.454;2023-04-08T04:36:51;93666.00;;;9.40
41940;BMP180;23057;48.554;14.454;2023-04-08T04:39:22;93667.00;;;9.40
41940;BMP180;23057;48.554;14.454;2023-04-08T04:41:52;93668.00;;;9.40
41940;BMP180;23057;48.554;14.454;2023-04-08T04:44:23;93654.00;;;9.40
41940;BMP180;23057;48.554;14.454;2023-04-08T04:46:54;93663.00;;;9.50
41940;BMP180;23057;48.554;14.454;2023-04-08T04:49:25;93666.00;;;9.50
41940;BMP180;23057;48.554;14.454;2023-04-08T04:51:56;93671.00;;;9.50
41940;BMP180;23057;48.554;14.454;2023-04-08T04:54:27;93674.00;;;9.50
41940;BMP180;23057;48.554;14.454;2023-04-08T04:56:57;93672.00;;;9.50
41940;BMP180;23057;48.554;14.454;2023-04-08T04:59:28;93672.00;;;9.50
41940;BMP180;23057;48.554;14.454;2023-04-08T05:01:59;93671.00;;;9.50
41940;BMP180;23057;48.554;14.454;2023-04-08T05:04:30;93679.00;;;9.50
41940;BMP180;23057;48.554;14.454;2023-04-08T05:07:00;93673.00;;;9.50
41940;BMP180;23057;48.554;14.454;2023-04-08T05:09:31;93676.00;;;9.60
41940;BMP180;23057;48.554;14.454;2023-04-08T05:12:02;93682.00;;;9.60
41940;BMP180;23057;48.554;14.454;2023-04-08T05:14:33;93680.00;;;9.60
41940;BMP180;23057;48.554;14.454;2023-04-08T05:17:04;93681.00;;;9.50
41940;BMP180;23057;48.554;14.454;2023-04-08T05:19:35;93681.00;;;9.50
41940;BMP180;23057;48.554;14.454;2023-04-08T05:22:06;93679.00;;;9.40
41940;BMP180;23057;48.554;14.454;2023-04-08T05:24:37;93682.00;;;9.40
41940;BMP180;23057;48.554;14.454;2023-04-08T05:27:07;93685.00;;;9.30
41940;BMP180;23057;48.554;14.454;2023-04-08T05:29:38;93686.00;;;9.40
41940;BMP180;23057;48.554;14.454;2023-04-08T05:32:09;93684.00;;;9.40
41940;BMP180;23057;48.554;14.454;2023-04-08T05:34:40;93684.00;;;9.40
41940;BMP180;23057;48.554;14.454;2023-04-08T05:37:10;93682.00;;;9.40
41940;BMP180;23057;48.554;14.454;2023-04-08T05:39:42;93693.00;;;9.40
41940;BMP180;23057;48.554;14.454;2023-04-08T05:42:12;93690.00;;;9.40
41940;BMP180;23057;48.554;14.454;2023-04-08T05:44:43;93693.00;;;9.50
41940;BMP180;23057;48.554;14.454;2023-04-08T05:47:14;93704.00;;;9.50
41940;BMP180;23057;48.554;14.454;2023-04-08T05:49:45;93701.00;;;9.50
41940;BMP180;23057;48.554;14.454;2023-04-08T05:52:16;93700.00;;;9.50
41940;BMP180;23057;48.554;14.454;2023-04-08T05:54:47;93696.00;;;9.50
41940;BMP180;23057;48.554;14.454;2023-04-08T05:57:17;93700.00;;;9.50
41940;BMP180;23057;48.554;14.454;2023-04-08T05:59:48;93697.00;;;9.50
41940;BMP180;23057;48.554;14.454;2023-04-08T06:02:19;93702.00;;;9.50
41940;BMP180;23057;48.554;14.454;2023-04-08T06:04:50;93702.00;;;9.50
41940;BMP180;23057;48.554;14.454;2023-04-08T06:07:20;93707.00;;;9.50
41940;BMP180;23057;48.554;14.454;2023-04-08T06:09:51;93707.00;;;9.50
41940;BMP180;23057;48.554;14.454;2023-04-08T06:12:22;93701.00;;;9.40
41940;BMP180;23057;48.554;14.454;2023-04-08T06:14:53;93704.00;;;9.40
41940;BMP180;23057;48.554;14.454;2023-04-08T06:17:25;93706.00;;;9.50
41940;BMP180;23057;48.554;14.454;2023-04-08T06:19:56;93709.00;;;9.40
41940;BMP180;23057;48.554;14.454;2023-04-08T06:22:27;93705.00;;;9.40
41940;BMP180;23057;48.554;14.454;2023-04-08T06:24:57;93702.00;;;9.40
41940;BMP180;23057;48.554;14.454;2023-04-08T06:27:28;93708.00;;;9.40
41940;BMP180;23057;48.554;14.454;2023-04-08T06:30:00;93721.00;;;9.40
41940;BMP180;23057;48.554;14.454;2023-04-08T06:32:30;93717.00;;;9.40
41940;BMP180;23057;48.554;14.454;2023-04-08T06:35:01;93708.00;;;9.40
41940;BMP180;23057;48.554;14.454;2023-04-08T06:37:32;93720.00;;;9.40
41940;BMP180;23057;48.554;14.454;2023-04-08T06:40:04;93717.00;;;9.50
41940;BMP180;23057;48.554;14.454;2023-04-08T06:42:36;93721.00;;;9.50
41940;BMP180;23057;48.554;14.454;2023-04-08T06:45:08;93726.00;;;9.50
41940;BMP180;23057;48.554;14.454;2023-04-08T06:47:39;93731.00;;;9.50
41940;BMP180;23057;48.554;14.454;2023-04-08T06:50:10;93727.00;;;9.50
41940;BMP180;23057;48.554;14.454;2023-04-08T06:52:40;93737.00;;;9.50
41940;BMP180;23057;48.554;14.454;2023-04-08T06:55:11;93733.00;;;9.50
41940;BMP180;23057;48.554;14.454;2023-04-08T06:57:42;93744.00;;;9.40
41940;BMP180;23057;48.554;14.454;2023-04-08T07:00:13;93740.00;;;9.30
41940;BMP180;23057;48.554;14.454;2023-04-08T07:02:44;93742.00;;;9.30
41940;BMP180;23057;48.554;14.454;2023-04-08T07:05:14;93741.00;;;9.20
41940;BMP180;23057;48.554;14.454;2023-04-08T07:07:45;93748.00;;;9.10
41940;BMP180;23057;48.554;14.454;2023-04-08T07:10:16;93742.00;;;9.10
41940;BMP180;23057;48.554;14.454;2023-04-08T07:12:47;93749.00;;;9.10
41940;BMP180;23057;48.554;14.454;2023-04-08T07:15:18;93752.00;;;9.10
41940;BMP180;23057;48.554;14.454;2023-04-08T07:17:48;93754.00;;;9.10
41940;BMP180;23057;48.554;14.454;2023-04-08T07:20:19;93755.00;;;9.10
41940;BMP180;23057;48.554;14.454;2023-04-08T07:22:51;93754.00;;;9.00
41940;BMP180;23057;48.554;14.454;2023-04-08T07:25:22;93761.00;;;9.00
41940;BMP180;23057;48.554;14.454;2023-04-08T07:27:52;93767.00;;;9.00
41940;BMP180;23057;48.554;14.454;2023-04-08T07:30:23;93767.00;;;8.90
41940;BMP180;23057;48.554;14.454;2023-04-08T07:32:54;93770.00;;;8.90
41940;BMP180;23057;48.554;14.454;2023-04-08T07:35:25;93770.00;;;8.90
41940;BMP180;23057;48.554;14.454;2023-04-08T07:37:55;93771.00;;;8.80
41940;BMP180;23057;48.554;14.454;2023-04-08T07:40:27;93776.00;;;8.80
41940;BMP180;23057;48.554;14.454;2023-04-08T07:42:57;93774.00;;;8.80
41940;BMP180;23057;48.554;14.454;2023-04-08T07:45:28;93780.00;;;8.80
41940;BMP180;23057;48.554;14.454;2023-04-08T07:47:59;93780.00;;;8.80
41940;BMP180;23057;48.554;14.454;2023-04-08T07:50:30;93783.00;;;8.80
41940;BMP180;23057;48.554;14.454;2023-04-08T07:53:00;93785.00;;;8.80
41940;BMP180;23057;48.554;14.454;2023-04-08T07:55:34;93776.00;;;8.80
41940;BMP180;23057;48.554;14.454;2023-04-08T07:58:05;93784.00;;;8.90
41940;BMP180;23057;48.554;14.454;2023-04-08T08:00:35;93781.00;;;9.00
41940;BMP180;23057;48.554;14.454;2023-04-08T08:03:06;93791.00;;;9.00
41940;BMP180;23057;48.554;14.454;2023-04-08T08:05:37;93789.00;;;9.10
41940;BMP180;23057;48.554;14.454;2023-04-08T08:08:08;93800.00;;;9.10
41940;BMP180;23057;48.554;14.454;2023-04-08T08:10:41;93799.00;;;9.20
41940;BMP180;23057;48.554;14.454;2023-04-08T08:13:11;93801.00;;;9.20
41940;BMP180;23057;48.554;14.454;2023-04-08T08:15:46;93797.00;;;9.20
41940;BMP180;23057;48.554;14.454;2023-04-08T08:18:21;93803.00;;;9.30
41940;BMP180;23057;48.554;14.454;2023-04-08T08:20:52;93797.00;;;9.30
41940;BMP180;23057;48.554;14.454;2023-04-08T08:23:23;93804.00;;;9.40
41940;BMP180;23057;48.554;14.454;2023-04-08T08:26:07;93804.00;;;9.50
41940;BMP180;23057;48.554;14.454;2023-04-08T08:28:39;93804.00;;;9.60
41940;BMP180;23057;48.554;14.454;2023-04-08T08:31:10;93802.00;;;9.70
41940;BMP180;23057;48.554;14.454;2023-04-08T08:33:41;93807.00;;;9.70
41940;BMP180;23057;48.554;14.454;2023-04-08T08:36:12;93803.00;;;9.70
41940;BMP180;23057;48.554;14.454;2023-04-08T08:38:43;93801.00;;;9.70
41940;BMP180;23057;48.554;14.454;2023-04-08T08:41:13;93800.00;;;9.70
41940;BMP180;23057;48.554;14.454;2023-04-08T08:43:45;93797.00;;;9.60
41940;BMP180;23057;48.554;14.454;2023-04-08T08:46:16;93799.00;;;9.60
41940;BMP180;23057;48.554;14.454;2023-04-08T08:48:48;93814.00;;;9.50
41940;BMP180;23057;48.554;14.454;2023-04-08T08:51:19;93814.00;;;9.50
41940;BMP180;23057;48.554;14.454;2023-04-08T08:53:50;93807.00;;;9.50
41940;BMP180;23057;48.554;14.454;2023-04-08T08:56:21;93817.00;;;9.50
41940;BMP180;23057;48.554;14.454;2023-04-08T08:58:52;93817.00;;;9.50
41940;BMP180;23057;48.554;14.454;2023-04-08T09:01:33;93820.00;;;9.50
41940;BMP180;23057;48.554;14.454;2023-04-08T09:04:17;93831.00;;;9.60
41940;BMP180;23057;48.554;14.454;2023-04-08T09:07:07;93829.00;;;9.70
41940;BMP180;23057;48.554;14.454;2023-04-08T09:09:49;93828.00;;;9.80
41940;BMP180;23057;48.554;14.454;2023-04-08T09:12:22;93840.00;;;9.80
41940;BMP180;23057;48.554;14.454;2023-04-08T09:15:07;93837.00;;;9.90
41940;BMP180;23057;48.554;14.454;2023-04-08T09:17:39;93841.00;;;10.00
41940;BMP180;23057;48.554;14.454;2023-04-08T09:20:13;93841.00;;;10.00
41940;BMP180;23057;48.554;14.454;2023-04-08T09:23:00;93844.00;;;10.00
41940;BMP180;23057;48.554;14.454;2023-04-08T09:25:32;93852.00;;;10.10
41940;BMP180;23057;48.554;14.454;2023-04-08T09:28:03;93858.00;;;10.10
41940;BMP180;23057;48.554;14.454;2023-04-08T09:30:34;93855.00;;;10.10
41940;BMP180;23057;48.554;14.454;2023-04-08T09:33:06;93855.00;;;10.20
41940;BMP180;23057;48.554;14.454;2023-04-08T09:35:36;93847.00;;;10.30
41940;BMP180;23057;48.554;14.454;2023-04-08T09:38:08;93855.00;;;10.30
41940;BMP180;23057;48.554;14.454;2023-04-08T09:40:39;93865.00;;;10.30
41940;BMP180;23057;48.554;14.454;2023-04-08T09:43:12;93864.00;;;10.30
41940;BMP180;23057;48.554;14.454;2023-04-08T09:45:48;93861.00;;;10.30
41940;BMP180;23057;48.554;14.454;2023-04-08T09:48:26;93865.00;;;10.30
41940;BMP180;23057;48.554;14.454;2023-04-08T09:51:11;93866.00;;;10.40
41940;BMP180;23057;48.554;14.454;2023-04-08T09:53:46;93863.00;;;10.30
41940;BMP180;23057;48.554;14.454;2023-04-08T09:56:19;93870.00;;;10.30
41940;BMP180;23057;48.554;14.454;2023-04-08T09:58:54;93867.00;;;10.30
41940;BMP180;23057;48.554;14.454;2023-04-08T10:01:37;93866.00;;;10.20
41940;BMP180;23057;48.554;14.454;2023-04-08T10:04:14;93860.00;;;10.30
41940;BMP180;23057;48.554;14.454;2023-04-08T10:06:57;93874.00;;;10.20
41940;BMP180;23057;48.554;14.454;2023-04-08T10:09:33;93875.00;;;10.20
41940;BMP180;23057;48.554;14.454;2023-04-08T10:12:05;93878.00;;;10.20
41940;BMP180;23057;48.554;14.454;2023-04-08T10:14:36;93869.00;;;10.10
41940;BMP180;23057;48.554;14.454;2023-04-08T10:17:24;93877.00;;;10.10
41940;BMP180;23057;48.554;14.454;2023-04-08T10:20:01;93878.00;;;10.10
41940;BMP180;23057;48.554;14.454;2023-04-08T10:27:46;93879.00;;;10.30
41940;BMP180;23057;48.554;14.454;2023-04-08T10:32:58;93878.00;;;10.30
41940;BMP180;23057;48.554;14.454;2023-04-08T10:35:30;93890.00;;;10.30
41940;BMP180;23057;48.554;14.454;2023-04-08T10:38:02;93888.00;;;10.30
41940;BMP180;23057;48.554;14.454;2023-04-08T10:40:37;93879.00;;;10.20
41940;BMP180;23057;48.554;14.454;2023-04-08T10:43:12;93884.00;;;10.20
41940;BMP180;23057;48.554;14.454;2023-04-08T10:45:43;93887.00;;;10.20
41940;BMP180;23057;48.554;14.454;2023-04-08T10:48:20;93891.00;;;10.20
41940;BMP180;23057;48.554;14.454;2023-04-08T10:53:35;93891.00;;;10.20
41940;BMP180;23057;48.554;14.454;2023-04-08T10:56:10;93896.00;;;10.20
41940;BMP180;23057;48.554;14.454;2023-04-08T10:58:54;93890.00;;;10.10
41940;BMP180;23057;48.554;14.454;2023-04-08T11:01:25;93896.00;;;10.10
41940;BMP180;23057;48.554;14.454;2023-04-08T11:03:57;93896.00;;;10.10
41940;BMP180;23057;48.554;14.454;2023-04-08T11:06:28;93894.00;;;10.10
41940;BMP180;23057;48.554;14.454;2023-04-08T11:09:01;93892.00;;;10.10
41940;BMP180;23057;48.554;14.454;2023-04-08T11:11:33;93890.00;;;10.10
41940;BMP180;23057;48.554;14.454;2023-04-08T11:14:05;93894.00;;;10.10
41940;BMP180;23057;48.554;14.454;2023-04-08T11:16:37;93895.00;;;10.10
41940;BMP180;23057;48.554;14.454;2023-04-08T11:19:09;93898.00;;;10.10
41940;BMP180;23057;48.554;14.454;2023-04-08T11:21:39;93907.00;;;10.10
41940;BMP180;23057;48.554;14.454;2023-04-08T11:24:11;93898.00;;;10.10
41940;BMP180;23057;48.554;14.454;2023-04-08T11:26:42;93903.00;;;10.10
41940;BMP180;23057;48.554;14.454;2023-04-08T11:29:13;93903.00;;;10.00
41940;BMP180;23057;48.554;14.454;2023-04-08T11:31:45;93903.00;;;10.00
41940;BMP180;23057;48.554;14.454;2023-04-08T11:34:24;93911.00;;;10.00
41940;BMP180;23057;48.554;14.454;2023-04-08T11:36:55;93906.00;;;10.00
41940;BMP180;23057;48.554;14.454;2023-04-08T11:39:27;93914.00;;;10.00
41940;BMP180;23057;48.554;14.454;2023-04-08T11:41:58;93911.00;;;10.00
41940;BMP180;23057;48.554;14.454;2023-04-08T11:44:30;93909.00;;;9.90
41940;BMP180;23057;48.554;14.454;2023-04-08T11:47:02;93912.00;;;9.90
41940;BMP180;23057;48.554;14.454;2023-04-08T11:49:45;93903.00;;;9.90
41940;BMP180;23057;48.554;14.454;2023-04-08T11:52:17;93919.00;;;9.90
41940;BMP180;23057;48.554;14.454;2023-04-08T11:54:47;93913.00;;;9.90
41940;BMP180;23057;48.554;14.454;2023-04-08T11:57:27;93913.00;;;9.90
41940;BMP180;23057;48.554;14.454;2023-04-08T11:59:59;93921.00;;;9.80
41940;BMP180;23057;48.554;14.454;2023-04-08T12:02:30;93906.00;;;9.80
41940;BMP180;23057;48.554;14.454;2023-04-08T12:05:00;93919.00;;;9.80
41940;BMP180;23057;48.554;14.454;2023-04-08T12:07:32;93911.00;;;9.80
41940;BMP180;23057;48.554;14.454;2023-04-08T12:10:03;93906.00;;;9.80
41940;BMP180;23057;48.554;14.454;2023-04-08T12:12:34;93912.00;;;9.80
41940;BMP180;23057;48.554;14.454;2023-04-08T12:15:05;93913.00;;;9.80
41940;BMP180;23057;48.554;14.454;2023-04-08T12:17:37;93922.00;;;9.80
41940;BMP180;23057;48.554;14.454;2023-04-08T12:20:09;93912.00;;;9.90
41940;BMP180;23057;48.554;14.454;2023-04-08T12:22:41;93922.00;;;9.90
41940;BMP180;23057;48.554;14.454;2023-04-08T12:25:11;93913.00;;;9.80
41940;BMP180;23057;48.554;14.454;2023-04-08T12:27:42;93926.00;;;9.80
41940;BMP180;23057;48.554;14.454;2023-04-08T12:30:13;93930.00;;;9.80
41940;BMP180;23057;48.554;14.454;2023-04-08T12:32:43;93927.00;;;9.80
41940;BMP180;23057;48.554;14.454;2023-04-08T12:35:16;93920.00;;;9.80
41940;BMP180;23057;48.554;14.454;2023-04-08T12:37:47;93930.00;;;9.80
41940;BMP180;23057;48.554;14.454;2023-04-08T12:40:18;93939.00;;;9.80
41940;BMP180;23057;48.554;14.454;2023-04-08T12:42:49;93930.00;;;9.80
41940;BMP180;23057;48.554;14.454;2023-04-08T12:45:20;93933.00;;;9.90
41940;BMP180;23057;48.554;14.454;2023-04-08T12:47:51;93929.00;;;9.90
41940;BMP180;23057;48.554;14.454;2023-04-08T12:50:22;93933.00;;;9.90
41940;BMP180;23057;48.554;14.454;2023-04-08T12:52:53;93930.00;;;10.00
41940;BMP180;23057;48.554;14.454;2023-04-08T12:55:23;93926.00;;;10.00
41940;BMP180;23057;48.554;14.454;2023-04-08T12:57:54;93931.00;;;10.10
41940;BMP180;23057;48.554;14.454;2023-04-08T13:00:26;93933.00;;;10.20
41940;BMP180;23057;48.554;14.454;2023-04-08T13:02:56;93934.00;;;10.20
41940;BMP180;23057;48.554;14.454;2023-04-08T13:05:27;93930.00;;;10.20
41940;BMP180;23057;48.554;14.454;2023-04-08T13:07:58;93935.00;;;10.20
41940;BMP180;23057;48.554;14.454;2023-04-08T13:10:28;93933.00;;;10.20
41940;BMP180;23057;48.554;14.454;2023-04-08T13:12:59;93931.00;;;10.20
41940;BMP180;23057;48.554;14.454;2023-04-08T13:15:30;93932.00;;;10.30
41940;BMP180;23057;48.554;14.454;2023-04-08T13:18:01;93933.00;;;10.30
41940;BMP180;23057;48.554;14.454;2023-04-08T13:20:32;93931.00;;;10.30
41940;BMP180;23057;48.554;14.454;2023-04-08T13:23:03;93938.00;;;10.30
41940;BMP180;23057;48.554;14.454;2023-04-08T13:25:34;93938.00;;;10.40
41940;BMP180;23057;48.554;14.454;2023-04-08T13:28:04;93932.00;;;10.40
41940;BMP180;23057;48.554;14.454;2023-04-08T13:30:35;93939.00;;;10.40
41940;BMP180;23057;48.554;14.454;2023-04-08T13:33:06;93936.00;;;10.40
41940;BMP180;23057;48.554;14.454;2023-04-08T13:35:37;93933.00;;;10.40
41940;BMP180;23057;48.554;14.454;2023-04-08T13:38:08;93941.00;;;10.40
41940;BMP180;23057;48.554;14.454;2023-04-08T13:40:39;93948.00;;;10.30
41940;BMP180;23057;48.554;14.454;2023-04-08T13:43:09;93937.00;;;10.30
41940;BMP180;23057;48.554;14.454;2023-04-08T13:45:40;93941.00;;;10.40
41940;BMP180;23057;48.554;14.454;2023-04-08T13:48:11;93948.00;;;10.40
41940;BMP180;23057;48.554;14.454;2023-04-08T13:50:42;93943.00;;;10.50
41940;BMP180;23057;48.554;14.454;2023-04-08T13:53:13;93946.00;;;10.40
41940;BMP180;23057;48.554;14.454;2023-04-08T13:55:44;93949.00;;;10.50
41940;BMP180;23057;48.554;14.454;2023-04-08T13:58:15;93948.00;;;10.40
41940;BMP180;23057;48.554;14.454;2023-04-08T14:00:46;93938.00;;;10.50
41940;BMP180;23057;48.554;14.454;2023-04-08T14:03:17;93942.00;;;10.50
41940;BMP180;23057;48.554;14.454;2023-04-08T14:05:48;93946.00;;;10.60
41940;BMP180;23057;48.554;14.454;2023-04-08T14:08:20;93947.00;;;10.70
41940;BMP180;23057;48.554;14.454;2023-04-08T14:10:55;93957.00;;;10.70
41940;BMP180;23057;48.554;14.454;2023-04-08T14:13:26;93955.00;;;10.80
41940;BMP180;23057;48.554;14.454;2023-04-08T14:15:57;93961.00;;;10.80
41940;BMP180;23057;48.554;14.454;2023-04-08T14:18:30;93964.00;;;10.80
41940;BMP180;23057;48.554;14.454;2023-04-08T14:21:01;93962.00;;;10.80
41940;BMP180;23057;48.554;14.454;2023-04-08T14:23:33;93964.00;;;10.80
41940;BMP180;23057;48.554;14.454;2023-04-08T14:26:04;93960.00;;;10.80
41940;BMP180;23057;48.554;14.454;2023-04-08T14:28:35;93960.00;;;10.70
41940;BMP180;23057;48.554;14.454;2023-04-08T14:31:06;93973.00;;;10.70
41940;BMP180;23057;48.554;14.454;2023-04-08T14:33:36;93975.00;;;10.70
41940;BMP180;23057;48.554;14.454;2023-04-08T14:36:08;93971.00;;;10.70
41940;BMP180;23057;48.554;14.454;2023-04-08T14:38:40;93983.00;;;10.70
41940;BMP180;23057;48.554;14.454;2023-04-08T14:41:11;93974.00;;;10.60
41940;BMP180;23057;48.554;14.454;2023-04-08T14:43:41;93981.00;;;10.50
41940;BMP180;23057;48.554;14.454;2023-04-08T14:46:12;93977.00;;;10.40
41940;BMP180;23057;48.554;14.454;2023-04-08T14:48:43;93979.00;;;10.30
41940;BMP180;23057;48.554;14.454;2023-04-08T14:51:14;93975.00;;;10.30